sensor_id;sensor_type;location;lat;lon;timestamp;temperature;humidity
10891;DHT22;5498;50.928;11.598;2022-11-15T00:02:38;6.60;93.70
10891;DHT22;5498;50.928;11.598;2022-11-15T00:05:41;6.60;93.70
10891;DHT22;5498;50.928;11.598;2022-11-15T00:08:44;6.60;93.70
10891;DHT22;5498;50.928;11.598;2022-11-15T00:11:46;6.60;93.70
10891;DHT22;5498;50.928;11.598;2022-11-15T00:14:48;6.60;93.70
10891;DHT22;5498;50.928;11.598;2022-11-15T00:17:50;6.50;93.70
10891;DHT22;5498;50.928;11.598;2022-11-15T00:20:53;6.50;93.80
10891;DHT22;5498;50.928;11.598;2022-11-15T00:23:55;6.50;93.80
10891;DHT22;5498;50.928;11.598;2022-11-15T00:26:57;6.80;93.80
10891;DHT22;5498;50.928;11.598;2022-11-15T00:29:59;6.50;93.80
10891;DHT22;5498;50.928;11.598;2022-11-15T00:33:02;6.40;93.80
10891;DHT22;5498;50.928;11.598;2022-11-15T00:36:08;6.40;93.90
10891;DHT22;5498;50.928;11.598;2022-11-15T00:39:11;6.40;93.90
10891;DHT22;5498;50.928;11.598;2022-11-15T00:42:13;6.40;93.90
10891;DHT22;5498;50.928;11.598;2022-11-15T00:45:15;6.40;93.90
10891;DHT22;5498;50.928;11.598;2022-11-15T00:48:17;6.40;94.10
10891;DHT22;5498;50.928;11.598;2022-11-15T00:51:20;6.30;94.10
10891;DHT22;5498;50.928;11.598;2022-11-15T00:54:25;6.30;94.10
10891;DHT22;5498;50.928;11.598;2022-11-15T00:57:28;6.30;94.10
10891;DHT22;5498;50.928;11.598;2022-11-15T01:00:30;6.30;94.10
10891;DHT22;5498;50.928;11.598;2022-11-15T01:03:32;6.10;94.10
10891;DHT22;5498;50.928;11.598;2022-11-15T01:06:35;6.00;94.30
10891;DHT22;5498;50.928;11.598;2022-11-15T01:09:37;6.00;94.50
10891;DHT22;5498;50.928;11.598;2022-11-15T01:12:39;6.00;94.70
10891;DHT22;5498;50.928;11.598;2022-11-15T01:15:41;6.00;94.60
10891;DHT22;5498;50.928;11.598;2022-11-15T01:18:44;6.00;94.50
10891;DHT22;5498;50.928;11.598;2022-11-15T01:21:50;6.00;94.50
10891;DHT22;5498;50.928;11.598;2022-11-15T01:24:52;6.00;94.30
10891;DHT22;5498;50.928;11.598;2022-11-15T01:27:54;6.00;94.20
10891;DHT22;5498;50.928;11.598;2022-11-15T01:30:57;6.00;94.30
10891;DHT22;5498;50.928;11.598;2022-11-15T01:34:00;6.00;94.40
10891;DHT22;5498;50.928;11.598;2022-11-15T01:37:03;6.00;94.30
10891;DHT22;5498;50.928;11.598;2022-11-15T01:40:06;6.00;94.30
10891;DHT22;5498;50.928;11.598;2022-11-15T01:43:22;6.00;94.40
10891;DHT22;5498;50.928;11.598;2022-11-15T01:46:29;6.00;94.50
10891;DHT22;5498;50.928;11.598;2022-11-15T01:49:35;6.10;94.50
10891;DHT22;5498;50.928;11.598;2022-11-15T01:52:40;6.00;94.60
10891;DHT22;5498;50.928;11.598;2022-11-15T01:55:42;6.00;94.50
10891;DHT22;5498;50.928;11.598;2022-11-15T01:58:45;6.00;94.30
10891;DHT22;5498;50.928;11.598;2022-11-15T02:01:47;6.50;94.40
10891;DHT22;5498;50.928;11.598;2022-11-15T02:04:49;6.00;94.30
10891;DHT22;5498;50.928;11.598;2022-11-15T02:07:53;6.00;94.20
10891;DHT22;5498;50.928;11.598;2022-11-15T02:10:56;6.00;94.30
10891;DHT22;5498;50.928;11.598;2022-11-15T02:13:58;5.90;94.20
10891;DHT22;5498;50.928;11.598;2022-11-15T02:17:21;5.90;94.30
10891;DHT22;5498;50.928;11.598;2022-11-15T02:24:30;5.90;94.40
10891;DHT22;5498;50.928;11.598;2022-11-15T02:31:43;5.90;94.40
10891;DHT22;5498;50.928;11.598;2022-11-15T02:34:51;5.90;94.50
10891;DHT22;5498;50.928;11.598;2022-11-15T02:37:58;5.90;94.50
10891;DHT22;5498;50.928;11.598;2022-11-15T02:41:08;5.90;94.50
10891;DHT22;5498;50.928;11.598;2022-11-15T02:44:16;5.80;94.50
10891;DHT22;5498;50.928;11.598;2022-11-15T02:47:24;5.80;94.60
10891;DHT22;5498;50.928;11.598;2022-11-15T02:50:30;5.80;94.60
10891;DHT22;5498;50.928;11.598;2022-11-15T02:53:33;5.80;94.60
10891;DHT22;5498;50.928;11.598;2022-11-15T02:56:36;5.80;94.50
10891;DHT22;5498;50.928;11.598;2022-11-15T03:00:02;5.80;94.60
10891;DHT22;5498;50.928;11.598;2022-11-15T03:03:29;5.80;94.70
10891;DHT22;5498;50.928;11.598;2022-11-15T03:06:44;5.80;94.70
10891;DHT22;5498;50.928;11.598;2022-11-15T03:09:56;5.80;94.60
10891;DHT22;5498;50.928;11.598;2022-11-15T03:13:07;5.80;94.70
10891;DHT22;5498;50.928;11.598;2022-11-15T03:16:17;5.80;94.60
10891;DHT22;5498;50.928;11.598;2022-11-15T03:19:28;5.80;94.60
10891;DHT22;5498;50.928;11.598;2022-11-15T03:22:35;5.80;94.60
10891;DHT22;5498;50.928;11.598;2022-11-15T03:25:40;5.80;94.60
10891;DHT22;5498;50.928;11.598;2022-11-15T03:28:49;5.80;94.60
10891;DHT22;5498;50.928;11.598;2022-11-15T03:31:59;5.80;94.60
10891;DHT22;5498;50.928;11.598;2022-11-15T03:35:06;5.90;94.70
10891;DHT22;5498;50.928;11.598;2022-11-15T03:38:14;5.90;94.70
10891;DHT22;5498;50.928;11.598;2022-11-15T03:41:23;5.90;94.80
10891;DHT22;5498;50.928;11.598;2022-11-15T03:44:36;5.90;94.80
10891;DHT22;5498;50.928;11.598;2022-11-15T03:47:46;5.90;94.80
10891;DHT22;5498;50.928;11.598;2022-11-15T03:50:52;6.30;94.80
10891;DHT22;5498;50.928;11.598;2022-11-15T03:53:55;5.80;94.60
10891;DHT22;5498;50.928;11.598;2022-11-15T03:56:57;6.20;94.60
10891;DHT22;5498;50.928;11.598;2022-11-15T04:00:00;5.70;94.50
10891;DHT22;5498;50.928;11.598;2022-11-15T04:03:02;5.60;94.50
10891;DHT22;5498;50.928;11.598;2022-11-15T04:06:06;5.90;94.70
10891;DHT22;5498;50.928;11.598;2022-11-15T04:09:09;5.60;94.60
10891;DHT22;5498;50.928;11.598;2022-11-15T04:12:11;5.60;94.70
10891;DHT22;5498;50.928;11.598;2022-11-15T04:15:14;5.60;94.70
10891;DHT22;5498;50.928;11.598;2022-11-15T04:18:17;5.60;94.90
10891;DHT22;5498;50.928;11.598;2022-11-15T04:21:21;5.60;94.80
10891;DHT22;5498;50.928;11.598;2022-11-15T04:24:55;5.60;94.90
10891;DHT22;5498;50.928;11.598;2022-11-15T04:27:57;5.50;94.90
10891;DHT22;5498;50.928;11.598;2022-11-15T04:30:59;5.50;94.90
10891;DHT22;5498;50.928;11.598;2022-11-15T04:34:01;5.50;95.00
10891;DHT22;5498;50.928;11.598;2022-11-15T04:37:04;5.60;95.00
10891;DHT22;5498;50.928;11.598;2022-11-15T04:40:16;5.90;95.00
10891;DHT22;5498;50.928;11.598;2022-11-15T04:43:18;5.60;95.30
10891;DHT22;5498;50.928;11.598;2022-11-15T04:46:20;4.80;94.70
10891;DHT22;5498;50.928;11.598;2022-11-15T04:49:22;5.50;94.80
10891;DHT22;5498;50.928;11.598;2022-11-15T04:52:26;5.50;94.80
10891;DHT22;5498;50.928;11.598;2022-11-15T04:55:28;5.50;94.80
10891;DHT22;5498;50.928;11.598;2022-11-15T04:58:30;5.50;94.90
10891;DHT22;5498;50.928;11.598;2022-11-15T05:01:32;5.50;94.80
10891;DHT22;5498;50.928;11.598;2022-11-15T05:04:34;5.50;94.80
10891;DHT22;5498;50.928;11.598;2022-11-15T05:07:38;5.50;94.90
10891;DHT22;5498;50.928;11.598;2022-11-15T05:10:40;5.50;94.90
10891;DHT22;5498;50.928;11.598;2022-11-15T05:13:42;5.50;94.70
10891;DHT22;5498;50.928;11.598;2022-11-15T05:16:44;5.50;94.80
10891;DHT22;5498;50.928;11.598;2022-11-15T05:19:46;5.40;94.70
10891;DHT22;5498;50.928;11.598;2022-11-15T05:22:49;5.40;94.70
10891;DHT22;5498;50.928;11.598;2022-11-15T05:25:51;5.40;94.70
10891;DHT22;5498;50.928;11.598;2022-11-15T05:28:54;5.40;94.80
10891;DHT22;5498;50.928;11.598;2022-11-15T05:31:56;5.40;95.00
10891;DHT22;5498;50.928;11.598;2022-11-15T05:34:58;5.40;94.90
10891;DHT22;5498;50.928;11.598;2022-11-15T05:38:03;5.40;94.80
10891;DHT22;5498;50.928;11.598;2022-11-15T05:41:05;5.40;95.00
10891;DHT22;5498;50.928;11.598;2022-11-15T05:44:10;5.40;94.80
10891;DHT22;5498;50.928;11.598;2022-11-15T05:47:16;5.40;94.80
10891;DHT22;5498;50.928;11.598;2022-11-15T05:50:20;5.40;94.80
10891;DHT22;5498;50.928;11.598;2022-11-15T05:53:25;5.30;94.60
10891;DHT22;5498;50.928;11.598;2022-11-15T05:56:28;5.30;94.60
10891;DHT22;5498;50.928;11.598;2022-11-15T05:59:32;5.20;94.60
10891;DHT22;5498;50.928;11.598;2022-11-15T06:02:34;5.20;94.70
10891;DHT22;5498;50.928;11.598;2022-11-15T06:05:36;5.20;94.70
10891;DHT22;5498;50.928;11.598;2022-11-15T06:08:39;5.20;94.80
10891;DHT22;5498;50.928;11.598;2022-11-15T06:11:41;5.20;94.80
10891;DHT22;5498;50.928;11.598;2022-11-15T06:14:43;5.30;94.80
10891;DHT22;5498;50.928;11.598;2022-11-15T06:17:46;5.30;94.90
10891;DHT22;5498;50.928;11.598;2022-11-15T06:20:48;5.30;94.90
10891;DHT22;5498;50.928;11.598;2022-11-15T06:23:52;5.50;94.80
10891;DHT22;5498;50.928;11.598;2022-11-15T06:26:54;5.30;94.90
10891;DHT22;5498;50.928;11.598;2022-11-15T06:29:56;5.30;94.90
10891;DHT22;5498;50.928;11.598;2022-11-15T06:32:59;5.30;95.00
10891;DHT22;5498;50.928;11.598;2022-11-15T06:36:03;5.30;95.10
10891;DHT22;5498;50.928;11.598;2022-11-15T06:39:06;5.30;95.00
10891;DHT22;5498;50.928;11.598;2022-11-15T06:42:09;5.30;94.90
10891;DHT22;5498;50.928;11.598;2022-11-15T06:45:11;5.30;94.90
10891;DHT22;5498;50.928;11.598;2022-11-15T06:48:14;5.30;94.90
10891;DHT22;5498;50.928;11.598;2022-11-15T06:51:16;5.20;94.80
10891;DHT22;5498;50.928;11.598;2022-11-15T06:54:19;5.20;94.80
10891;DHT22;5498;50.928;11.598;2022-11-15T06:57:21;5.20;94.90
10891;DHT22;5498;50.928;11.598;2022-11-15T07:00:23;5.30;94.90
10891;DHT22;5498;50.928;11.598;2022-11-15T07:03:25;5.30;95.10
10891;DHT22;5498;50.928;11.598;2022-11-15T07:06:27;5.30;94.90
10891;DHT22;5498;50.928;11.598;2022-11-15T07:09:31;5.30;94.70
10891;DHT22;5498;50.928;11.598;2022-11-15T07:12:34;5.30;94.80
10891;DHT22;5498;50.928;11.598;2022-11-15T07:15:36;5.30;94.80
10891;DHT22;5498;50.928;11.598;2022-11-15T07:18:39;5.30;94.80
10891;DHT22;5498;50.928;11.598;2022-11-15T07:21:42;5.30;94.80
10891;DHT22;5498;50.928;11.598;2022-11-15T07:24:45;5.30;94.70
10891;DHT22;5498;50.928;11.598;2022-11-15T07:27:54;5.30;94.60
10891;DHT22;5498;50.928;11.598;2022-11-15T07:30:56;5.40;94.70
10891;DHT22;5498;50.928;11.598;2022-11-15T07:33:58;5.40;94.50
10891;DHT22;5498;50.928;11.598;2022-11-15T07:37:02;5.40;94.50
10891;DHT22;5498;50.928;11.598;2022-11-15T07:40:09;5.50;94.50
10891;DHT22;5498;50.928;11.598;2022-11-15T07:43:15;5.50;94.40
10891;DHT22;5498;50.928;11.598;2022-11-15T07:46:17;5.50;94.30
10891;DHT22;5498;50.928;11.598;2022-11-15T07:49:20;5.50;94.40
10891;DHT22;5498;50.928;11.598;2022-11-15T07:52:21;5.50;94.20
10891;DHT22;5498;50.928;11.598;2022-11-15T07:55:26;5.50;94.20
10891;DHT22;5498;50.928;11.598;2022-11-15T07:58:30;5.50;94.40
10891;DHT22;5498;50.928;11.598;2022-11-15T08:01:32;5.50;94.30
10891;DHT22;5498;50.928;11.598;2022-11-15T08:04:34;5.60;94.20
10891;DHT22;5498;50.928;11.598;2022-11-15T08:07:36;5.60;94.30
10891;DHT22;5498;50.928;11.598;2022-11-15T08:10:40;5.60;94.30
10891;DHT22;5498;50.928;11.598;2022-11-15T08:13:42;5.70;94.10
10891;DHT22;5498;50.928;11.598;2022-11-15T08:16:44;6.10;94.40
10891;DHT22;5498;50.928;11.598;2022-11-15T08:19:46;5.80;94.40
10891;DHT22;5498;50.928;11.598;2022-11-15T08:22:48;5.80;94.40
10891;DHT22;5498;50.928;11.598;2022-11-15T08:25:51;5.90;94.40
10891;DHT22;5498;50.928;11.598;2022-11-15T08:28:54;5.90;94.30
10891;DHT22;5498;50.928;11.598;2022-11-15T08:31:56;6.00;94.40
10891;DHT22;5498;50.928;11.598;2022-11-15T08:34:58;6.10;94.40
10891;DHT22;5498;50.928;11.598;2022-11-15T08:38:00;6.10;94.40
10891;DHT22;5498;50.928;11.598;2022-11-15T08:41:04;6.20;94.40
10891;DHT22;5498;50.928;11.598;2022-11-15T08:44:06;6.20;94.40
10891;DHT22;5498;50.928;11.598;2022-11-15T08:47:10;6.30;94.40
10891;DHT22;5498;50.928;11.598;2022-11-15T08:50:14;6.40;94.30
10891;DHT22;5498;50.928;11.598;2022-11-15T08:53:17;6.50;94.40
10891;DHT22;5498;50.928;11.598;2022-11-15T08:56:20;6.60;94.20
10891;DHT22;5498;50.928;11.598;2022-11-15T08:59:22;6.60;94.30
10891;DHT22;5498;50.928;11.598;2022-11-15T09:02:24;6.70;94.30
10891;DHT22;5498;50.928;11.598;2022-11-15T09:05:26;6.70;94.30
10891;DHT22;5498;50.928;11.598;2022-11-15T09:08:31;6.80;94.50
10891;DHT22;5498;50.928;11.598;2022-11-15T09:11:34;6.90;94.50
10891;DHT22;5498;50.928;11.598;2022-11-15T09:14:37;7.30;94.60
10891;DHT22;5498;50.928;11.598;2022-11-15T09:17:39;7.00;94.50
10891;DHT22;5498;50.928;11.598;2022-11-15T09:20:41;7.00;94.50
10891;DHT22;5498;50.928;11.598;2022-11-15T09:23:43;7.10;94.50
10891;DHT22;5498;50.928;11.598;2022-11-15T09:26:46;7.20;94.50
10891;DHT22;5498;50.928;11.598;2022-11-15T09:29:48;7.30;94.40
10891;DHT22;5498;50.928;11.598;2022-11-15T09:32:50;7.40;94.20
10891;DHT22;5498;50.928;11.598;2022-11-15T09:35:53;8.00;94.40
10891;DHT22;5498;50.928;11.598;2022-11-15T09:38:57;7.60;94.20
10891;DHT22;5498;50.928;11.598;2022-11-15T09:42:25;8.10;94.30
10891;DHT22;5498;50.928;11.598;2022-11-15T09:45:42;7.80;94.20
10891;DHT22;5498;50.928;11.598;2022-11-15T09:48:52;8.00;94.20
10891;DHT22;5498;50.928;11.598;2022-11-15T09:51:55;8.10;94.20
10891;DHT22;5498;50.928;11.598;2022-11-15T09:54:58;8.20;94.10
10891;DHT22;5498;50.928;11.598;2022-11-15T09:58:09;8.70;94.00
10891;DHT22;5498;50.928;11.598;2022-11-15T10:04:38;8.90;93.90
10891;DHT22;5498;50.928;11.598;2022-11-15T10:07:48;9.20;93.80
10891;DHT22;5498;50.928;11.598;2022-11-15T10:11:08;9.80;93.70
10891;DHT22;5498;50.928;11.598;2022-11-15T10:14:15;10.40;93.00
10891;DHT22;5498;50.928;11.598;2022-11-15T10:17:29;10.20;92.40
10891;DHT22;5498;50.928;11.598;2022-11-15T10:20:46;10.60;91.90
10891;DHT22;5498;50.928;11.598;2022-11-15T10:23:50;11.10;91.80
10891;DHT22;5498;50.928;11.598;2022-11-15T10:26:53;11.40;91.50
10891;DHT22;5498;50.928;11.598;2022-11-15T10:29:57;11.80;91.20
10891;DHT22;5498;50.928;11.598;2022-11-15T10:33:10;12.20;90.70
10891;DHT22;5498;50.928;11.598;2022-11-15T10:36:17;12.60;90.40
10891;DHT22;5498;50.928;11.598;2022-11-15T10:39:25;12.90;90.00
10891;DHT22;5498;50.928;11.598;2022-11-15T10:42:29;13.30;89.30
10891;DHT22;5498;50.928;11.598;2022-11-15T10:45:33;13.90;88.50
10891;DHT22;5498;50.928;11.598;2022-11-15T10:48:35;13.80;87.60
10891;DHT22;5498;50.928;11.598;2022-11-15T10:51:41;14.10;86.80
10891;DHT22;5498;50.928;11.598;2022-11-15T10:54:47;14.20;85.50
10891;DHT22;5498;50.928;11.598;2022-11-15T10:57:52;14.40;82.80
10891;DHT22;5498;50.928;11.598;2022-11-15T11:01:12;14.60;83.20
10891;DHT22;5498;50.928;11.598;2022-11-15T11:04:16;14.80;83.20
10891;DHT22;5498;50.928;11.598;2022-11-15T11:07:21;15.00;82.20
10891;DHT22;5498;50.928;11.598;2022-11-15T11:10:25;15.10;81.80
10891;DHT22;5498;50.928;11.598;2022-11-15T11:13:28;15.30;81.40
10891;DHT22;5498;50.928;11.598;2022-11-15T11:16:42;15.30;80.50
10891;DHT22;5498;50.928;11.598;2022-11-15T11:19:53;15.50;80.50
10891;DHT22;5498;50.928;11.598;2022-11-15T11:23:06;15.50;80.10
10891;DHT22;5498;50.928;11.598;2022-11-15T11:26:42;15.60;79.70
10891;DHT22;5498;50.928;11.598;2022-11-15T11:29:59;15.60;79.60
10891;DHT22;5498;50.928;11.598;2022-11-15T11:33:12;15.60;79.30
10891;DHT22;5498;50.928;11.598;2022-11-15T11:36:24;15.70;79.50
10891;DHT22;5498;50.928;11.598;2022-11-15T11:39:34;15.70;79.70
10891;DHT22;5498;50.928;11.598;2022-11-15T11:42:50;15.80;79.00
10891;DHT22;5498;50.928;11.598;2022-11-15T11:46:09;15.90;78.40
10891;DHT22;5498;50.928;11.598;2022-11-15T11:49:24;16.10;78.10
10891;DHT22;5498;50.928;11.598;2022-11-15T11:52:31;16.20;77.60
10891;DHT22;5498;50.928;11.598;2022-11-15T11:55:38;16.30;77.20
10891;DHT22;5498;50.928;11.598;2022-11-15T11:58:44;16.40;76.90
10891;DHT22;5498;50.928;11.598;2022-11-15T12:01:47;16.50;76.10
10891;DHT22;5498;50.928;11.598;2022-11-15T12:04:53;16.70;76.20
10891;DHT22;5498;50.928;11.598;2022-11-15T12:08:04;16.60;76.00
10891;DHT22;5498;50.928;11.598;2022-11-15T12:11:22;16.60;75.50
10891;DHT22;5498;50.928;11.598;2022-11-15T12:14:32;16.60;74.20
10891;DHT22;5498;50.928;11.598;2022-11-15T12:17:38;16.60;68.70
10891;DHT22;5498;50.928;11.598;2022-11-15T12:20:50;16.60;67.80
10891;DHT22;5498;50.928;11.598;2022-11-15T12:23:59;16.50;66.00
10891;DHT22;5498;50.928;11.598;2022-11-15T12:27:15;16.50;66.30
10891;DHT22;5498;50.928;11.598;2022-11-15T12:30:20;16.50;67.60
10891;DHT22;5498;50.928;11.598;2022-11-15T12:33:31;16.50;68.00
10891;DHT22;5498;50.928;11.598;2022-11-15T12:36:39;16.60;68.20
10891;DHT22;5498;50.928;11.598;2022-11-15T12:40:04;16.50;67.50
10891;DHT22;5498;50.928;11.598;2022-11-15T12:43:39;16.40;67.70
10891;DHT22;5498;50.928;11.598;2022-11-15T12:47:03;16.20;66.60
10891;DHT22;5498;50.928;11.598;2022-11-15T12:50:12;16.10;65.70
10891;DHT22;5498;50.928;11.598;2022-11-15T12:53:29;16.10;67.30
10891;DHT22;5498;50.928;11.598;2022-11-15T12:56:32;15.90;67.80
10891;DHT22;5498;50.928;11.598;2022-11-15T12:59:48;15.80;67.80
10891;DHT22;5498;50.928;11.598;2022-11-15T13:03:23;15.80;68.40
10891;DHT22;5498;50.928;11.598;2022-11-15T13:06:44;15.70;68.80
10891;DHT22;5498;50.928;11.598;2022-11-15T13:09:55;15.60;68.90
10891;DHT22;5498;50.928;11.598;2022-11-15T13:12:58;15.60;69.30
10891;DHT22;5498;50.928;11.598;2022-11-15T13:16:01;15.60;69.20
10891;DHT22;5498;50.928;11.598;2022-11-15T13:19:05;15.60;68.20
10891;DHT22;5498;50.928;11.598;2022-11-15T13:22:09;15.60;68.20
10891;DHT22;5498;50.928;11.598;2022-11-15T13:25:58;15.60;68.90
10891;DHT22;5498;50.928;11.598;2022-11-15T13:29:16;15.60;68.90
10891;DHT22;5498;50.928;11.598;2022-11-15T13:32:19;15.60;68.00
10891;DHT22;5498;50.928;11.598;2022-11-15T13:35:25;15.60;67.40
10891;DHT22;5498;50.928;11.598;2022-11-15T13:38:29;15.70;66.10
10891;DHT22;5498;50.928;11.598;2022-11-15T13:41:34;15.60;66.50
10891;DHT22;5498;50.928;11.598;2022-11-15T13:44:37;15.70;66.00
10891;DHT22;5498;50.928;11.598;2022-11-15T13:47:39;15.70;65.90
10891;DHT22;5498;50.928;11.598;2022-11-15T13:50:42;15.70;64.80
10891;DHT22;5498;50.928;11.598;2022-11-15T13:53:47;15.70;65.00
10891;DHT22;5498;50.928;11.598;2022-11-15T13:56:53;15.70;65.00
10891;DHT22;5498;50.928;11.598;2022-11-15T13:59:59;15.70;64.20
10891;DHT22;5498;50.928;11.598;2022-11-15T14:03:10;15.70;65.10
10891;DHT22;5498;50.928;11.598;2022-11-15T14:06:19;15.70;65.50
10891;DHT22;5498;50.928;11.598;2022-11-15T14:09:34;15.70;64.00
10891;DHT22;5498;50.928;11.598;2022-11-15T14:12:37;15.70;64.40
10891;DHT22;5498;50.928;11.598;2022-11-15T14:15:40;15.70;64.20
10891;DHT22;5498;50.928;11.598;2022-11-15T14:18:45;15.70;63.90
10891;DHT22;5498;50.928;11.598;2022-11-15T14:25:32;15.60;65.10
10891;DHT22;5498;50.928;11.598;2022-11-15T14:28:35;15.60;65.40
10891;DHT22;5498;50.928;11.598;2022-11-15T14:31:40;15.60;65.70
10891;DHT22;5498;50.928;11.598;2022-11-15T14:34:42;15.50;65.10
10891;DHT22;5498;50.928;11.598;2022-11-15T14:37:47;15.50;65.80
10891;DHT22;5498;50.928;11.598;2022-11-15T14:40:49;15.40;66.20
10891;DHT22;5498;50.928;11.598;2022-11-15T14:43:52;15.30;66.90
10891;DHT22;5498;50.928;11.598;2022-11-15T14:46:55;15.20;67.90
10891;DHT22;5498;50.928;11.598;2022-11-15T14:49:56;15.10;67.90
10891;DHT22;5498;50.928;11.598;2022-11-15T14:53:00;14.90;68.50
10891;DHT22;5498;50.928;11.598;2022-11-15T14:56:02;14.90;68.30
10891;DHT22;5498;50.928;11.598;2022-11-15T14:59:04;14.80;69.00
10891;DHT22;5498;50.928;11.598;2022-11-15T15:02:11;14.70;68.60
10891;DHT22;5498;50.928;11.598;2022-11-15T15:05:19;14.70;68.70
10891;DHT22;5498;50.928;11.598;2022-11-15T15:08:24;14.60;67.80
10891;DHT22;5498;50.928;11.598;2022-11-15T15:11:27;14.60;67.60
10891;DHT22;5498;50.928;11.598;2022-11-15T15:14:30;14.50;67.90
10891;DHT22;5498;50.928;11.598;2022-11-15T15:17:32;14.50;67.00
10891;DHT22;5498;50.928;11.598;2022-11-15T15:20:35;14.50;67.50
10891;DHT22;5498;50.928;11.598;2022-11-15T15:23:43;14.40;68.80
10891;DHT22;5498;50.928;11.598;2022-11-15T15:26:45;14.30;69.10
10891;DHT22;5498;50.928;11.598;2022-11-15T15:29:47;14.20;69.70
10891;DHT22;5498;50.928;11.598;2022-11-15T15:32:50;14.10;70.50
10891;DHT22;5498;50.928;11.598;2022-11-15T15:35:52;14.00;70.80
10891;DHT22;5498;50.928;11.598;2022-11-15T15:38:55;13.80;71.50
10891;DHT22;5498;50.928;11.598;2022-11-15T15:41:57;13.70;72.10
10891;DHT22;5498;50.928;11.598;2022-11-15T15:44:59;13.60;72.00
10891;DHT22;5498;50.928;11.598;2022-11-15T15:48:01;13.50;72.90
10891;DHT22;5498;50.928;11.598;2022-11-15T15:51:03;13.80;74.00
10891;DHT22;5498;50.928;11.598;2022-11-15T15:54:07;13.30;74.70
10891;DHT22;5498;50.928;11.598;2022-11-15T15:57:12;13.10;74.80
10891;DHT22;5498;50.928;11.598;2022-11-15T16:00:15;13.10;75.80
10891;DHT22;5498;50.928;11.598;2022-11-15T16:03:18;12.90;76.50
10891;DHT22;5498;50.928;11.598;2022-11-15T16:06:34;12.90;76.70
10891;DHT22;5498;50.928;11.598;2022-11-15T16:09:39;12.80;77.60
10891;DHT22;5498;50.928;11.598;2022-11-15T16:13:00;12.80;77.80
10891;DHT22;5498;50.928;11.598;2022-11-15T16:16:02;12.70;78.20
10891;DHT22;5498;50.928;11.598;2022-11-15T16:19:04;12.60;78.50
10891;DHT22;5498;50.928;11.598;2022-11-15T16:22:07;12.50;78.80
10891;DHT22;5498;50.928;11.598;2022-11-15T16:25:11;12.50;78.90
10891;DHT22;5498;50.928;11.598;2022-11-15T16:28:17;12.50;79.30
10891;DHT22;5498;50.928;11.598;2022-11-15T16:31:21;12.40;80.00
10891;DHT22;5498;50.928;11.598;2022-11-15T16:34:24;12.40;80.00
10891;DHT22;5498;50.928;11.598;2022-11-15T16:37:26;12.70;80.50
10891;DHT22;5498;50.928;11.598;2022-11-15T16:40:31;12.30;80.40
10891;DHT22;5498;50.928;11.598;2022-11-15T16:43:35;12.70;81.20
10891;DHT22;5498;50.928;11.598;2022-11-15T16:46:40;12.20;81.00
10891;DHT22;5498;50.928;11.598;2022-11-15T16:49:42;12.10;81.70
10891;DHT22;5498;50.928;11.598;2022-11-15T16:52:45;12.10;81.70
10891;DHT22;5498;50.928;11.598;2022-11-15T16:55:48;12.60;81.90
10891;DHT22;5498;50.928;11.598;2022-11-15T16:58:51;12.10;81.80
10891;DHT22;5498;50.928;11.598;2022-11-15T17:01:54;12.10;82.20
10891;DHT22;5498;50.928;11.598;2022-11-15T17:04:56;12.10;82.20
10891;DHT22;5498;50.928;11.598;2022-11-15T17:07:58;12.00;82.50
10891;DHT22;5498;50.928;11.598;2022-11-15T17:11:04;12.00;82.80
10891;DHT22;5498;50.928;11.598;2022-11-15T17:14:06;12.30;83.30
10891;DHT22;5498;50.928;11.598;2022-11-15T17:17:09;12.00;83.00
10891;DHT22;5498;50.928;11.598;2022-11-15T17:20:15;11.90;83.60
10891;DHT22;5498;50.928;11.598;2022-11-15T17:23:17;11.90;83.90
10891;DHT22;5498;50.928;11.598;2022-11-15T17:26:21;12.00;84.00
10891;DHT22;5498;50.928;11.598;2022-11-15T17:29:23;11.80;84.10
10891;DHT22;5498;50.928;11.598;2022-11-15T17:32:25;11.80;83.60
10891;DHT22;5498;50.928;11.598;2022-11-15T17:35:26;11.80;84.40
10891;DHT22;5498;50.928;11.598;2022-11-15T17:38:28;11.80;84.30
10891;DHT22;5498;50.928;11.598;2022-11-15T17:41:32;11.80;84.80
10891;DHT22;5498;50.928;11.598;2022-11-15T17:44:34;11.70;84.90
10891;DHT22;5498;50.928;11.598;2022-11-15T17:47:36;11.70;85.30
10891;DHT22;5498;50.928;11.598;2022-11-15T17:50:39;11.70;85.50
10891;DHT22;5498;50.928;11.598;2022-11-15T17:53:44;11.70;85.60
10891;DHT22;5498;50.928;11.598;2022-11-15T17:56:48;11.70;85.70
10891;DHT22;5498;50.928;11.598;2022-11-15T17:59:50;12.00;86.00
10891;DHT22;5498;50.928;11.598;2022-11-15T18:02:52;11.60;85.70
10891;DHT22;5498;50.928;11.598;2022-11-15T18:05:54;12.00;86.20
10891;DHT22;5498;50.928;11.598;2022-11-15T18:08:57;11.50;86.20
10891;DHT22;5498;50.928;11.598;2022-11-15T18:12:00;11.40;86.70
10891;DHT22;5498;50.928;11.598;2022-11-15T18:15:03;11.30;86.70
10891;DHT22;5498;50.928;11.598;2022-11-15T18:18:05;11.30;87.30
10891;DHT22;5498;50.928;11.598;2022-11-15T18:21:10;11.30;87.50
10891;DHT22;5498;50.928;11.598;2022-11-15T18:24:13;11.30;87.60
10891;DHT22;5498;50.928;11.598;2022-11-15T18:27:16;11.70;87.70
10891;DHT22;5498;50.928;11.598;2022-11-15T18:30:18;11.30;87.50
10891;DHT22;5498;50.928;11.598;2022-11-15T18:33:20;11.30;87.50
10891;DHT22;5498;50.928;11.598;2022-11-15T18:36:23;11.20;87.40
10891;DHT22;5498;50.928;11.598;2022-11-15T18:39:26;11.20;87.60
10891;DHT22;5498;50.928;11.598;2022-11-15T18:42:29;11.20;87.60
10891;DHT22;5498;50.928;11.598;2022-11-15T18:45:33;11.20;87.70
10891;DHT22;5498;50.928;11.598;2022-11-15T18:48:36;11.20;88.10
10891;DHT22;5498;50.928;11.598;2022-11-15T18:51:39;11.20;88.20
10891;DHT22;5498;50.928;11.598;2022-11-15T18:54:42;11.20;88.00
10891;DHT22;5498;50.928;11.598;2022-11-15T18:57:45;11.20;87.80
10891;DHT22;5498;50.928;11.598;2022-11-15T19:00:47;11.20;87.70
10891;DHT22;5498;50.928;11.598;2022-11-15T19:03:52;11.40;87.80
10891;DHT22;5498;50.928;11.598;2022-11-15T19:06:55;11.20;88.00
10891;DHT22;5498;50.928;11.598;2022-11-15T19:09:57;11.10;87.80
10891;DHT22;5498;50.928;11.598;2022-11-15T19:13:00;11.10;88.10
10891;DHT22;5498;50.928;11.598;2022-11-15T19:16:03;11.10;88.20
10891;DHT22;5498;50.928;11.598;2022-11-15T19:19:07;11.00;88.40
10891;DHT22;5498;50.928;11.598;2022-11-15T19:22:11;11.00;88.60
10891;DHT22;5498;50.928;11.598;2022-11-15T19:25:13;11.00;88.50
10891;DHT22;5498;50.928;11.598;2022-11-15T19:28:19;11.00;88.70
10891;DHT22;5498;50.928;11.598;2022-11-15T19:31:23;10.90;88.80
10891;DHT22;5498;50.928;11.598;2022-11-15T19:34:26;10.90;89.10
10891;DHT22;5498;50.928;11.598;2022-11-15T19:37:27;10.90;89.00
10891;DHT22;5498;50.928;11.598;2022-11-15T19:40:31;10.80;89.10
10891;DHT22;5498;50.928;11.598;2022-11-15T19:43:35;10.80;89.50
10891;DHT22;5498;50.928;11.598;2022-11-15T19:46:37;10.90;89.60
10891;DHT22;5498;50.928;11.598;2022-11-15T19:49:39;10.70;89.60
10891;DHT22;5498;50.928;11.598;2022-11-15T19:52:42;10.70;89.70
10891;DHT22;5498;50.928;11.598;2022-11-15T19:55:53;11.10;90.00